South Cave, United Kingdom
Current Conditions -  °F | °C
As of 1:50 PM on Tuesday 21 Oct 2014 (Local Time) from EGXV Reporting Station
Few Clouds Few Clouds  
Wind Chill: 54°   Ceiling: Unl
Heat Index: 54°   Visibility: 6mi
Dew Point: 37°   Wind: 24mph
Humidity: 54%   Direction: 290°WNW
Pressure: 29.5"   Gusts: 40mph
Location:  53.77°N, 0.6°W
Report Text: EGXV 211250Z AUTO 29021G35KT 9999 FEW048/// 12/03 Q0999
Loading
Personal Weather Stations






























Interactive Weather Map New forecast layout! Learn more

10-Day Weather Forecast

Advertisements
Track Severe Weather on mobile